Time;durP1;ratioP1;P1;durP2;ratioP2;P2;SDS_P1;SDS_P2;PMS_P1;PMS_P2;Temp;Humidity;BMP_temperature;BMP_pressure;BME280_temperature;BME280_humidity;BME280_pressure;Samples;Min_cycle;Max_cycle;Signal;HPM_P1;HPM_P2
2022/03/29 00:00:38;;;;;;;12.82;7.20;;;;;;;;;;5015885;28;20037;-51
2022/03/29 00:03:07;;;;;;;13.55;6.90;;;;;;;;;;5015590;28;20118;-53
2022/03/29 00:05:37;;;;;;;15.35;6.07;;;;;;;;;;5015612;28;20049;-52
2022/03/29 00:08:04;;;;;;;9.90;5.95;;;;;;;;;;5015727;28;20105;-55
2022/03/29 00:10:30;;;;;;;14.98;6.68;;;;;;;;;;5015358;28;20048;-52
2022/03/29 00:12:56;;;;;;;15.38;5.45;;;;;;;;;;5015401;28;20026;-50
2022/03/29 00:15:22;;;;;;;15.88;6.10;;;;;;;;;;5015426;28;20083;-52
2022/03/29 00:17:48;;;;;;;13.30;6.38;;;;;;;;;;5015215;28;20470;-51
2022/03/29 00:20:15;;;;;;;10.63;6.25;;;;;;;;;;5015498;28;20169;-51
2022/03/29 00:22:40;;;;;;;11.55;6.53;;;;;;;;;;5015200;28;20026;-53
2022/03/29 00:25:07;;;;;;;12.20;6.50;;;;;;;;;;5014813;28;20037;-54
2022/03/29 00:27:36;;;;;;;13.68;7.18;;;;;;;;;;5015353;28;20022;-52
2022/03/29 00:30:04;;;;;;;15.75;6.82;;;;;;;;;;5014928;28;20485;-54
2022/03/29 00:32:30;;;;;;;14.57;6.38;;;;;;;;;;5014934;28;20026;-53
2022/03/29 00:34:55;;;;;;;15.40;6.78;;;;;;;;;;5015263;28;20018;-54
2022/03/29 00:37:21;;;;;;;18.92;7.47;;;;;;;;;;5015232;28;20052;-53
2022/03/29 00:39:46;;;;;;;17.83;7.40;;;;;;;;;;5014841;28;20028;-53
2022/03/29 00:42:12;;;;;;;12.65;6.60;;;;;;;;;;5015096;28;20030;-52
2022/03/29 00:44:38;;;;;;;14.30;6.50;;;;;;;;;;5014752;28;20113;-55
2022/03/29 00:47:04;;;;;;;15.48;6.60;;;;;;;;;;5014677;28;20072;-51
2022/03/29 00:49:30;;;;;;;13.25;7.63;;;;;;;;;;5014899;28;20057;-51
2022/03/29 00:51:59;;;;;;;15.38;7.55;;;;;;;;;;5014532;28;20053;-52
2022/03/29 00:54:26;;;;;;;17.63;7.60;;;;;;;;;;5014848;28;20025;-53
2022/03/29 00:56:51;;;;;;;16.75;7.50;;;;;;;;;;5014660;28;20080;-52
2022/03/29 00:59:20;;;;;;;16.65;7.40;;;;;;;;;;5014488;28;20041;-52
2022/03/29 01:01:46;;;;;;;18.60;8.10;;;;;;;;;;5014432;28;20053;-54
2022/03/29 01:04:11;;;;;;;17.38;7.75;;;;;;;;;;5014381;28;20040;-51
2022/03/29 01:06:38;;;;;;;19.65;7.45;;;;;;;;;;5014152;28;20046;-52
2022/03/29 01:09:04;;;;;;;16.33;7.85;;;;;;;;;;5014206;28;20477;-56
2022/03/29 01:11:30;;;;;;;12.52;6.78;;;;;;;;;;5014524;28;20045;-52
2022/03/29 01:13:56;;;;;;;16.88;7.50;;;;;;;;;;5014190;28;20029;-47
2022/03/29 01:19:11;;;;;;;15.35;7.47;;;;;;;;;;5014484;28;20083;-53
2022/03/29 01:21:39;;;;;;;15.90;6.93;;;;;;;;;;5013257;28;20053;-54
2022/03/29 01:24:05;;;;;;;15.77;7.72;;;;;;;;;;5014257;28;20053;-54
2022/03/29 01:26:33;;;;;;;18.08;8.07;;;;;;;;;;5014297;28;20030;-55
2022/03/29 01:29:00;;;;;;;30.20;9.40;;;;;;;;;;5014187;28;20112;-53
2022/03/29 01:31:28;;;;;;;17.27;8.15;;;;;;;;;;5014198;28;20026;-52
2022/03/29 01:33:56;;;;;;;16.08;8.13;;;;;;;;;;5014197;28;20084;-54
2022/03/29 01:36:21;;;;;;;23.45;8.00;;;;;;;;;;5012845;28;20054;-53
2022/03/29 01:38:47;;;;;;;14.75;7.68;;;;;;;;;;5013735;28;20257;-53
2022/03/29 01:41:13;;;;;;;18.65;7.95;;;;;;;;;;5014038;28;20152;-58
2022/03/29 01:43:38;;;;;;;16.15;8.07;;;;;;;;;;5013970;28;20108;-59
2022/03/29 01:46:07;;;;;;;18.00;7.70;;;;;;;;;;5013931;28;20030;-59
2022/03/29 01:48:33;;;;;;;22.30;7.80;;;;;;;;;;5013911;28;20026;-59
2022/03/29 01:50:58;;;;;;;15.02;7.82;;;;;;;;;;5013927;28;20045;-59
2022/03/29 01:53:26;;;;;;;14.00;7.68;;;;;;;;;;5013576;28;20053;-59
2022/03/29 01:55:56;;;;;;;13.23;7.68;;;;;;;;;;5013777;28;20033;-58
2022/03/29 01:58:26;;;;;;;15.65;8.00;;;;;;;;;;5013483;28;20034;-59
2022/03/29 02:00:52;;;;;;;19.25;7.32;;;;;;;;;;5013305;28;20157;-60
2022/03/29 02:03:18;;;;;;;11.15;6.57;;;;;;;;;;5013395;28;20074;-58
2022/03/29 02:05:43;;;;;;;12.38;7.20;;;;;;;;;;5013187;28;20076;-59
2022/03/29 02:08:09;;;;;;;16.38;7.32;;;;;;;;;;5013506;28;20026;-59
2022/03/29 02:10:35;;;;;;;21.30;7.05;;;;;;;;;;5013460;28;20092;-60
2022/03/29 02:13:01;;;;;;;14.25;6.97;;;;;;;;;;5013470;28;20374;-59
2022/03/29 02:15:27;;;;;;;12.70;6.78;;;;;;;;;;5013400;28;20029;-60
2022/03/29 02:17:53;;;;;;;17.20;7.30;;;;;;;;;;5012291;28;20029;-60
2022/03/29 02:20:20;;;;;;;13.68;7.00;;;;;;;;;;5013251;28;20363;-59
2022/03/29 02:22:45;;;;;;;17.50;8.05;;;;;;;;;;5013052;28;20165;-60
2022/03/29 02:25:12;;;;;;;15.70;6.72;;;;;;;;;;5013344;28;20050;-60
2022/03/29 02:27:43;;;;;;;11.32;6.90;;;;;;;;;;5012917;28;20030;-58
2022/03/29 02:30:11;;;;;;;16.75;6.72;;;;;;;;;;5013168;28;20076;-60
2022/03/29 02:32:37;;;;;;;19.10;7.50;;;;;;;;;;5013227;28;20037;-59
2022/03/29 02:35:03;;;;;;;14.13;7.03;;;;;;;;;;5013176;28;20494;-59
2022/03/29 02:37:28;;;;;;;13.43;7.20;;;;;;;;;;5013136;28;20429;-59
2022/03/29 02:39:54;;;;;;;14.10;6.10;;;;;;;;;;5012774;28;20022;-59
2022/03/29 02:42:19;;;;;;;11.85;5.32;;;;;;;;;;5012999;28;20029;-59
2022/03/29 02:44:45;;;;;;;20.05;6.47;;;;;;;;;;5012798;28;20062;-59
2022/03/29 02:47:10;;;;;;;13.25;6.68;;;;;;;;;;5012695;28;20034;-59
2022/03/29 02:49:36;;;;;;;12.93;6.82;;;;;;;;;;5012960;28;20041;-59
2022/03/29 02:52:02;;;;;;;18.65;6.85;;;;;;;;;;5012629;28;20368;-57
2022/03/29 02:54:28;;;;;;;14.50;6.70;;;;;;;;;;5012917;28;20065;-59
2022/03/29 02:56:54;;;;;;;14.20;5.97;;;;;;;;;;5012938;28;20057;-59
2022/03/29 02:59:19;;;;;;;18.45;6.88;;;;;;;;;;5011449;28;20017;-59
2022/03/29 03:01:45;;;;;;;16.27;6.55;;;;;;;;;;5012561;28;20032;-53
2022/03/29 03:04:14;;;;;;;13.95;6.53;;;;;;;;;;5012568;28;20026;-60
2022/03/29 03:06:41;;;;;;;13.52;6.35;;;;;;;;;;5012356;28;20042;-59
2022/03/29 03:09:07;;;;;;;19.98;7.20;;;;;;;;;;5012472;28;20504;-54
2022/03/29 03:11:32;;;;;;;14.45;5.82;;;;;;;;;;5012544;28;20117;-55
2022/03/29 03:13:58;;;;;;;16.63;5.97;;;;;;;;;;5012517;28;20026;-54
2022/03/29 03:16:24;;;;;;;13.85;6.90;;;;;;;;;;5012685;28;20026;-53
2022/03/29 03:18:49;;;;;;;23.33;7.20;;;;;;;;;;5012726;28;20029;-54
2022/03/29 03:21:15;;;;;;;13.20;7.03;;;;;;;;;;5012709;28;20030;-55
2022/03/29 03:23:40;;;;;;;19.33;6.50;;;;;;;;;;5012423;28;20069;-54
2022/03/29 03:26:06;;;;;;;12.82;6.57;;;;;;;;;;5012315;28;20024;-54
2022/03/29 03:28:31;;;;;;;14.57;7.05;;;;;;;;;;5012619;28;20104;-51
2022/03/29 03:30:57;;;;;;;14.63;6.55;;;;;;;;;;5012342;28;20038;-55
2022/03/29 03:33:23;;;;;;;10.02;6.70;;;;;;;;;;5012279;28;20041;-54
2022/03/29 03:35:48;;;;;;;11.32;6.60;;;;;;;;;;5012548;28;20037;-55
2022/03/29 03:38:14;;;;;;;18.35;7.13;;;;;;;;;;5012239;28;20034;-52
2022/03/29 03:40:41;;;;;;;16.73;6.88;;;;;;;;;;5012278;28;20113;-55
2022/03/29 03:43:07;;;;;;;16.77;6.70;;;;;;;;;;5012508;28;20034;-54
2022/03/29 03:45:33;;;;;;;16.35;6.55;;;;;;;;;;5012187;28;20034;-53
2022/03/29 03:47:58;;;;;;;12.95;7.22;;;;;;;;;;5012088;28;20030;-58
2022/03/29 03:50:24;;;;;;;13.23;7.22;;;;;;;;;;5012322;28;20029;-60
2022/03/29 03:52:51;;;;;;;15.80;6.38;;;;;;;;;;5012342;28;20050;-60
2022/03/29 03:55:18;;;;;;;14.98;7.68;;;;;;;;;;5012061;28;20036;-59
2022/03/29 03:57:44;;;;;;;16.75;6.60;;;;;;;;;;5011975;28;20034;-56
2022/03/29 04:00:11;;;;;;;16.48;6.53;;;;;;;;;;5014911;28;20026;-59
2022/03/29 04:02:37;;;;;;;13.63;7.00;;;;;;;;;;5015591;28;20026;-59
2022/03/29 04:05:03;;;;;;;14.77;7.78;;;;;;;;;;5015324;28;20026;-59
2022/03/29 04:07:28;;;;;;;19.38;8.25;;;;;;;;;;5015427;28;20036;-57
2022/03/29 04:09:54;;;;;;;13.80;7.25;;;;;;;;;;5015316;28;20033;-59
2022/03/29 04:12:20;;;;;;;20.25;8.98;;;;;;;;;;5015201;28;20037;-60
2022/03/29 04:14:46;;;;;;;16.08;8.43;;;;;;;;;;5015292;28;20030;-59
2022/03/29 04:17:12;;;;;;;16.10;8.68;;;;;;;;;;5015576;28;20034;-59
2022/03/29 04:19:38;;;;;;;23.02;8.88;;;;;;;;;;5015229;28;20029;-58
2022/03/29 04:22:04;;;;;;;21.67;9.75;;;;;;;;;;5015706;28;20108;-59
2022/03/29 04:24:30;;;;;;;19.40;8.90;;;;;;;;;;5015117;28;20026;-59
2022/03/29 04:26:55;;;;;;;13.27;7.80;;;;;;;;;;5015434;28;20053;-59
2022/03/29 04:29:22;;;;;;;17.58;10.15;;;;;;;;;;5015047;28;20036;-58
2022/03/29 04:31:48;;;;;;;19.35;10.45;;;;;;;;;;5014875;28;20041;-58
2022/03/29 04:34:14;;;;;;;17.05;11.00;;;;;;;;;;5014958;28;20030;-57
2022/03/29 04:36:40;;;;;;;22.10;11.70;;;;;;;;;;5015301;28;20034;-58
2022/03/29 04:39:05;;;;;;;24.52;11.25;;;;;;;;;;5015221;28;20068;-59
2022/03/29 04:41:31;;;;;;;19.52;11.80;;;;;;;;;;5015173;28;20022;-51
2022/03/29 04:43:57;;;;;;;20.08;9.52;;;;;;;;;;5013878;28;20040;-53
2022/03/29 04:46:23;;;;;;;30.33;13.20;;;;;;;;;;5015028;28;20389;-49
2022/03/29 04:48:52;;;;;;;24.52;12.57;;;;;;;;;;5014628;28;20469;-60
2022/03/29 04:51:18;;;;;;;29.52;13.57;;;;;;;;;;5014855;28;20238;-60
2022/03/29 04:53:43;;;;;;;22.90;12.52;;;;;;;;;;5014565;28;20026;-60
2022/03/29 04:56:09;;;;;;;24.52;11.98;;;;;;;;;;5014426;28;20033;-58
2022/03/29 04:58:35;;;;;;;24.75;13.35;;;;;;;;;;5014722;28;20076;-60
2022/03/29 05:01:00;;;;;;;19.98;11.90;;;;;;;;;;5014713;28;20053;-61
2022/03/29 05:03:26;;;;;;;21.92;12.45;;;;;;;;;;5014252;28;20388;-60
2022/03/29 05:05:52;;;;;;;22.58;13.32;;;;;;;;;;5013982;28;20037;-58
2022/03/29 05:08:17;;;;;;;23.58;13.05;;;;;;;;;;5014522;28;20038;-61
2022/03/29 05:10:43;;;;;;;18.35;12.85;;;;;;;;;;5014275;28;20040;-60
2022/03/29 05:13:09;;;;;;;23.98;13.35;;;;;;;;;;5014218;28;20022;-59
2022/03/29 05:15:35;;;;;;;19.88;12.80;;;;;;;;;;5014197;28;20038;-61
2022/03/29 05:18:01;;;;;;;22.02;13.65;;;;;;;;;;5014156;28;20076;-61
2022/03/29 05:20:26;;;;;;;21.27;13.32;;;;;;;;;;5013995;28;20453;-61
2022/03/29 05:22:53;;;;;;;25.30;13.63;;;;;;;;;;5014327;28;20041;-59
2022/03/29 05:25:21;;;;;;;24.27;14.75;;;;;;;;;;5014007;28;20100;-61
2022/03/29 05:27:47;;;;;;;24.33;14.02;;;;;;;;;;5013981;28;20057;-60
2022/03/29 05:30:14;;;;;;;20.95;13.98;;;;;;;;;;5013992;28;20034;-61
2022/03/29 05:32:41;;;;;;;19.30;13.23;;;;;;;;;;5013888;28;20092;-61
2022/03/29 05:35:08;;;;;;;22.48;14.48;;;;;;;;;;5013881;28;20026;-61
2022/03/29 05:37:38;;;;;;;29.35;15.60;;;;;;;;;;5013572;28;20022;-59
2022/03/29 05:40:08;;;;;;;21.40;13.90;;;;;;;;;;5013568;28;20026;-60
2022/03/29 05:42:40;;;;;;;;;;;;;;;;;;5012673;28;20037;-61
2022/03/29 05:45:07;;;;;;;21.17;14.05;;;;;;;;;;5013890;28;19996;-61
2022/03/29 05:50:17;;;;;;;25.35;12.68;;;;;;;;;;5012406;28;20049;-61
2022/03/29 05:52:42;;;;;;;26.45;14.18;;;;;;;;;;5012261;28;20026;-60
2022/03/29 05:55:08;;;;;;;20.38;12.98;;;;;;;;;;5012801;28;20529;-58
2022/03/29 05:57:34;;;;;;;24.60;13.88;;;;;;;;;;5013928;28;20026;-61
2022/03/29 05:59:59;;;;;;;24.75;14.43;;;;;;;;;;5023359;28;20576;-55
2022/03/29 06:02:25;;;;;;;20.80;13.70;;;;;;;;;;5021568;28;20029;-57
2022/03/29 06:04:51;;;;;;;22.33;13.85;;;;;;;;;;5022911;28;20088;-61
2022/03/29 06:07:17;;;;;;;24.02;14.05;;;;;;;;;;5015674;28;20040;-61
2022/03/29 06:09:43;;;;;;;22.15;14.20;;;;;;;;;;5013033;28;20022;-62
2022/03/29 06:12:09;;;;;;;20.83;13.73;;;;;;;;;;5013120;28;20033;-61
2022/03/29 06:14:34;;;;;;;19.15;13.40;;;;;;;;;;5014369;28;20041;-58
2022/03/29 06:17:00;;;;;;;22.40;14.30;;;;;;;;;;5022241;28;20097;-61
2022/03/29 06:19:26;;;;;;;24.73;14.02;;;;;;;;;;5028332;28;20397;-56
2022/03/29 06:21:52;;;;;;;19.85;14.35;;;;;;;;;;5017469;28;20030;-62
2022/03/29 06:24:17;;;;;;;30.27;15.65;;;;;;;;;;5021580;28;20032;-62
2022/03/29 06:26:43;;;;;;;24.95;14.68;;;;;;;;;;5013173;28;20032;-60
2022/03/29 06:29:10;;;;;;;21.95;13.63;;;;;;;;;;5012392;28;20033;-61
2022/03/29 06:31:37;;;;;;;28.77;13.75;;;;;;;;;;5022408;28;20049;-61
2022/03/29 06:34:03;;;;;;;24.55;13.30;;;;;;;;;;5016310;28;20022;-60
2022/03/29 06:36:28;;;;;;;18.65;13.68;;;;;;;;;;5013033;28;20382;-60
2022/03/29 06:38:54;;;;;;;22.95;13.43;;;;;;;;;;5012588;28;20473;-62
2022/03/29 06:41:20;;;;;;;22.40;13.82;;;;;;;;;;5011587;28;20037;-60
2022/03/29 06:43:46;;;;;;;21.75;13.48;;;;;;;;;;5012925;28;20022;-63
2022/03/29 06:46:12;;;;;;;25.63;14.00;;;;;;;;;;5012905;28;20051;-60
2022/03/29 06:48:42;;;;;;;22.45;14.05;;;;;;;;;;5012906;28;20477;-63
2022/03/29 06:51:14;;;;;;;41.95;13.02;;;;;;;;;;5011385;28;20097;-62
2022/03/29 06:53:40;;;;;;;27.40;13.60;;;;;;;;;;5012755;28;20109;-62
2022/03/29 06:56:07;;;;;;;116.25;18.02;;;;;;;;;;5012650;28;20468;-63
2022/03/29 06:58:34;;;;;;;28.50;14.65;;;;;;;;;;5012568;28;20030;-63
2022/03/29 07:01:00;;;;;;;40.60;14.38;;;;;;;;;;5012735;28;20045;-59
2022/03/29 07:03:27;;;;;;;28.17;13.65;;;;;;;;;;5009779;28;20028;-60
2022/03/29 07:05:53;;;;;;;44.67;14.52;;;;;;;;;;5012226;28;20486;-60
2022/03/29 07:08:20;;;;;;;21.70;14.40;;;;;;;;;;5011308;28;20088;-60
2022/03/29 07:13:31;;;;;;;20.13;13.80;;;;;;;;;;5011173;28;20048;-59
2022/03/29 07:15:57;;;;;;;19.85;12.07;;;;;;;;;;5011255;28;20033;-60
2022/03/29 07:18:22;;;;;;;22.38;13.65;;;;;;;;;;5011069;28;20382;-60
2022/03/29 07:20:48;;;;;;;19.58;13.77;;;;;;;;;;5012579;28;20429;-61
2022/03/29 07:23:13;;;;;;;21.65;13.05;;;;;;;;;;5012169;28;20454;-60
2022/03/29 07:25:39;;;;;;;21.25;13.48;;;;;;;;;;5012085;28;20133;-61
2022/03/29 07:28:11;;;;;;;43.10;13.50;;;;;;;;;;5011811;28;20026;-60
2022/03/29 07:30:38;;;;;;;19.23;13.07;;;;;;;;;;5011916;28;20646;-59
2022/03/29 07:33:03;;;;;;;20.08;13.02;;;;;;;;;;5012473;28;20390;-57
2022/03/29 07:35:29;;;;;;;20.90;13.18;;;;;;;;;;5015778;28;20389;-55
2022/03/29 07:37:56;;;;;;;19.40;13.73;;;;;;;;;;5015761;28;20382;-54
2022/03/29 07:40:24;;;;;;;21.55;13.05;;;;;;;;;;5016118;28;20022;-56
2022/03/29 07:42:50;;;;;;;22.75;13.73;;;;;;;;;;5025015;28;20045;-57
2022/03/29 07:45:17;;;;;;;18.48;13.45;;;;;;;;;;5015752;28;20049;-60
2022/03/29 07:47:43;;;;;;;22.65;14.18;;;;;;;;;;5015813;28;20080;-59
2022/03/29 07:50:11;;;;;;;20.88;13.60;;;;;;;;;;5015585;28;20025;-59
2022/03/29 07:52:39;;;;;;;23.80;13.80;;;;;;;;;;5015736;28;20037;-58
2022/03/29 07:55:06;;;;;;;18.83;12.27;;;;;;;;;;5015538;28;20021;-53
2022/03/29 07:57:33;;;;;;;20.80;12.30;;;;;;;;;;5015486;28;20022;-57
2022/03/29 07:59:59;;;;;;;23.23;13.68;;;;;;;;;;5015495;28;20405;-50
2022/03/29 08:02:25;;;;;;;23.08;13.65;;;;;;;;;;5015194;28;20056;-61
2022/03/29 08:04:50;;;;;;;20.73;12.70;;;;;;;;;;5015369;28;20129;-60
2022/03/29 08:07:16;;;;;;;18.73;11.95;;;;;;;;;;5015022;28;20084;-55
2022/03/29 08:09:42;;;;;;;20.35;12.95;;;;;;;;;;5015640;28;20036;-54
2022/03/29 08:12:08;;;;;;;25.25;13.38;;;;;;;;;;5015396;28;20025;-55
2022/03/29 08:14:34;;;;;;;24.30;12.70;;;;;;;;;;5015249;28;20026;-56
2022/03/29 08:17:00;;;;;;;19.30;13.63;;;;;;;;;;5015596;28;20088;-54
2022/03/29 08:19:26;;;;;;;20.00;13.00;;;;;;;;;;5015473;28;20030;-57
2022/03/29 08:21:52;;;;;;;23.27;12.93;;;;;;;;;;5015039;28;20362;-53
2022/03/29 08:24:25;;;;;;;27.92;13.82;;;;;;;;;;5015078;28;20045;-51
2022/03/29 08:26:53;;;;;;;17.48;13.70;;;;;;;;;;5015104;28;20118;-60
2022/03/29 08:29:21;;;;;;;24.50;13.18;;;;;;;;;;5015055;28;20037;-59
2022/03/29 08:31:49;;;;;;;21.88;12.75;;;;;;;;;;5015359;28;20049;-58
2022/03/29 08:34:16;;;;;;;20.90;12.73;;;;;;;;;;5015173;28;20065;-60
2022/03/29 08:36:42;;;;;;;17.15;12.45;;;;;;;;;;5013852;28;20032;-60
2022/03/29 08:39:09;;;;;;;29.60;13.25;;;;;;;;;;5013587;28;20041;-60
2022/03/29 08:41:44;;;;;;;21.17;14.15;;;;;;;;;;5013283;28;20160;-59
2022/03/29 08:44:10;;;;;;;29.17;13.20;;;;;;;;;;5012742;28;20076;-60
2022/03/29 08:46:39;;;;;;;22.70;13.98;;;;;;;;;;5013169;28;20034;-60
2022/03/29 08:49:08;;;;;;;19.77;12.20;;;;;;;;;;5013235;28;20030;-59
2022/03/29 08:51:36;;;;;;;26.60;13.43;;;;;;;;;;5013507;28;20389;-59
2022/03/29 08:54:02;;;;;;;24.15;14.05;;;;;;;;;;5012957;28;20030;-60
2022/03/29 08:56:28;;;;;;;20.13;13.23;;;;;;;;;;5013315;28;20040;-50
2022/03/29 08:58:54;;;;;;;22.45;13.18;;;;;;;;;;5013104;28;20105;-52
2022/03/29 09:01:20;;;;;;;24.92;14.18;;;;;;;;;;5013004;28;20030;-59
2022/03/29 09:04:11;;;;;;;22.83;13.57;;;;;;;;;;5013108;28;20038;-59
2022/03/29 09:07:03;;;;;;;32.72;13.50;;;;;;;;;;5012592;28;20042;-58
2022/03/29 09:09:38;;;;;;;20.83;12.52;;;;;;;;;;5007650;28;20049;-60
2022/03/29 09:12:15;;;;;;;22.08;13.43;;;;;;;;;;5012857;28;20397;-53
2022/03/29 09:14:59;;;;;;;19.10;13.25;;;;;;;;;;5012924;28;20040;-61
2022/03/29 09:17:46;;;;;;;17.63;13.30;;;;;;;;;;5012267;28;20493;-61
2022/03/29 09:20:21;;;;;;;23.08;14.48;;;;;;;;;;5012752;28;20042;-61
2022/03/29 09:22:49;;;;;;;32.08;12.85;;;;;;;;;;5012768;28;20022;-56
2022/03/29 09:25:33;;;;;;;33.22;13.65;;;;;;;;;;5012602;28;20034;-60
2022/03/29 09:28:15;;;;;;;23.42;12.32;;;;;;;;;;5012476;28;20121;-47
2022/03/29 09:30:46;;;;;;;66.32;13.75;;;;;;;;;;5012511;28;20429;-60
2022/03/29 09:33:16;;;;;;;23.05;13.85;;;;;;;;;;5012274;28;20037;-61
2022/03/29 09:36:10;;;;;;;17.17;12.23;;;;;;;;;;5012233;28;20026;-61
2022/03/29 09:38:40;;;;;;;22.73;13.48;;;;;;;;;;5012146;28;20641;-60
2022/03/29 09:41:19;;;;;;;24.13;13.38;;;;;;;;;;5012099;28;20478;-60
2022/03/29 09:43:58;;;;;;;23.83;14.32;;;;;;;;;;5012127;28;20030;-57
2022/03/29 09:46:24;;;;;;;17.60;12.75;;;;;;;;;;5012054;28;20144;-56
2022/03/29 09:48:50;;;;;;;24.08;13.32;;;;;;;;;;5019705;28;20120;-60
2022/03/29 09:51:18;;;;;;;30.55;15.05;;;;;;;;;;5032092;28;20038;-58
2022/03/29 09:53:53;;;;;;;27.40;13.80;;;;;;;;;;5031532;28;20057;-60
2022/03/29 09:56:26;;;;;;;24.65;14.32;;;;;;;;;;5030840;28;20477;-54
2022/03/29 09:59:03;;;;;;;26.05;15.23;;;;;;;;;;5031509;28;20021;-60
2022/03/29 10:01:30;;;;;;;35.60;14.48;;;;;;;;;;5031352;28;20073;-54
2022/03/29 10:03:56;;;;;;;20.40;12.38;;;;;;;;;;5031335;28;20033;-59
2022/03/29 10:06:23;;;;;;;49.05;15.43;;;;;;;;;;5031174;28;20139;-54
2022/03/29 10:11:36;;;;;;;21.40;13.30;;;;;;;;;;5031565;28;20056;-53
2022/03/29 10:14:03;;;;;;;20.30;13.50;;;;;;;;;;5031309;28;20121;-60
2022/03/29 10:16:29;;;;;;;53.08;13.85;;;;;;;;;;5031590;28;20029;-59
2022/03/29 10:18:55;;;;;;;23.52;13.43;;;;;;;;;;5031182;28;20552;-60
2022/03/29 10:21:21;;;;;;;24.52;13.93;;;;;;;;;;5031107;28;20033;-60
2022/03/29 10:23:49;;;;;;;23.02;14.27;;;;;;;;;;5031595;28;20083;-61
2022/03/29 10:26:21;;;;;;;28.13;14.70;;;;;;;;;;5031508;28;20461;-58
2022/03/29 10:28:51;;;;;;;29.00;14.10;;;;;;;;;;5031153;28;20035;-60
2022/03/29 10:31:36;;;;;;;29.83;14.05;;;;;;;;;;5031246;28;20132;-60
2022/03/29 10:34:25;;;;;;;39.70;14.57;;;;;;;;;;5031063;28;20029;-60
2022/03/29 10:37:09;;;;;;;;;;;;;;;;;;5021267;28;20041;-54
2022/03/29 10:40:05;;;;;;;40.17;13.95;;;;;;;;;;5031122;28;19983;-56
2022/03/29 10:42:32;;;;;;;40.45;14.65;;;;;;;;;;5029030;28;20042;-60
2022/03/29 10:45:22;;;;;;;23.95;14.60;;;;;;;;;;5031044;28;20109;-60
2022/03/29 10:47:58;;;;;;;18.27;13.13;;;;;;;;;;5030751;28;20041;-59
2022/03/29 10:50:46;;;;;;;21.02;14.43;;;;;;;;;;5021577;28;20033;-60
2022/03/29 10:53:42;;;;;;;18.65;13.68;;;;;;;;;;5010909;28;20034;-59
2022/03/29 10:56:12;;;;;;;23.30;13.63;;;;;;;;;;5009332;28;20125;-58
2022/03/29 10:59:00;;;;;;;20.95;13.65;;;;;;;;;;5011159;28;20025;-60
2022/03/29 11:01:26;;;;;;;23.38;13.50;;;;;;;;;;5010997;28;20044;-60
2022/03/29 11:04:02;;;;;;;23.83;13.00;;;;;;;;;;5012607;28;20124;-60
2022/03/29 11:06:28;;;;;;;19.75;13.57;;;;;;;;;;5017305;28;20025;-56
2022/03/29 11:09:15;;;;;;;21.88;13.02;;;;;;;;;;5030531;28;20045;-59
2022/03/29 11:11:43;;;;;;;25.92;13.80;;;;;;;;;;5034587;28;20071;-60
2022/03/29 11:14:27;;;;;;;23.90;14.68;;;;;;;;;;5034654;28;20037;-59
2022/03/29 11:17:16;;;;;;;21.77;13.98;;;;;;;;;;5034752;28;20033;-59
2022/03/29 11:19:53;;;;;;;24.92;12.52;;;;;;;;;;5034310;28;20021;-60
2022/03/29 11:22:39;;;;;;;22.00;12.85;;;;;;;;;;5029315;28;20436;-59
2022/03/29 11:25:09;;;;;;;20.67;12.90;;;;;;;;;;5019110;28;20038;-61
2022/03/29 11:27:36;;;;;;;22.88;12.68;;;;;;;;;;5023808;28;20040;-54
2022/03/29 11:30:05;;;;;;;30.58;13.20;;;;;;;;;;5034501;28;20120;-60
2022/03/29 11:32:31;;;;;;;24.20;12.95;;;;;;;;;;5034146;28;20080;-59
2022/03/29 11:34:58;;;;;;;21.77;12.65;;;;;;;;;;5034228;28;20499;-60
2022/03/29 11:37:40;;;;;;;25.40;12.38;;;;;;;;;;5034117;28;20033;-57
2022/03/29 11:40:08;;;;;;;34.08;12.57;;;;;;;;;;5034356;28;20029;-58
2022/03/29 11:42:59;;;;;;;22.98;12.60;;;;;;;;;;5033405;28;20025;-58
2022/03/29 11:45:27;;;;;;;17.52;11.52;;;;;;;;;;5014712;28;20072;-60
2022/03/29 11:47:53;;;;;;;21.10;12.07;;;;;;;;;;5014206;28;20022;-54
2022/03/29 11:50:28;;;;;;;21.75;12.85;;;;;;;;;;5018936;28;20049;-60
2022/03/29 11:52:54;;;;;;;20.85;13.90;;;;;;;;;;5024147;28;20049;-59
2022/03/29 11:55:19;;;;;;;20.77;14.13;;;;;;;;;;5019350;28;20381;-55
2022/03/29 11:57:45;;;;;;;19.70;12.23;;;;;;;;;;5026599;28;20029;-56
2022/03/29 12:00:28;;;;;;;14.13;10.68;;;;;;;;;;5032563;28;20065;-59
2022/03/29 12:02:54;;;;;;;20.05;11.15;;;;;;;;;;5016865;28;20028;-59
2022/03/29 12:05:27;;;;;;;19.08;12.15;;;;;;;;;;5019266;28;20033;-57
2022/03/29 12:08:02;;;;;;;25.13;11.88;;;;;;;;;;5013911;28;20029;-58
2022/03/29 12:10:34;;;;;;;17.38;11.52;;;;;;;;;;5013693;28;20066;-58
2022/03/29 12:12:59;;;;;;;19.00;11.27;;;;;;;;;;5019377;28;20476;-60
2022/03/29 12:15:25;;;;;;;14.32;11.05;;;;;;;;;;5013556;28;20033;-59
2022/03/29 12:18:40;;;;;;;19.05;11.68;;;;;;;;;;5019173;28;20168;-59
2022/03/29 12:20:38;;;;;;;27.67;13.70;;;;;;;;;;5025898;28;20037;-58
2022/03/29 12:23:32;;;;;;;21.58;12.00;;;;;;;;;;5033672;28;20029;-59
2022/03/29 12:25:58;;;;;;;18.42;11.43;;;;;;;;;;5033701;28;20033;-59
2022/03/29 12:28:26;;;;;;;16.92;11.07;;;;;;;;;;5033284;28;20029;-59
2022/03/29 12:30:54;;;;;;;21.42;11.80;;;;;;;;;;5033403;28;20045;-59
2022/03/29 12:33:22;;;;;;;20.70;12.88;;;;;;;;;;5033183;28;20108;-55
2022/03/29 12:36:04;;;;;;;24.13;12.40;;;;;;;;;;5033124;28;20037;-59
2022/03/29 12:38:48;;;;;;;22.90;13.40;;;;;;;;;;5033048;28;20041;-59
2022/03/29 12:41:33;;;;;;;15.90;10.98;;;;;;;;;;5032484;28;20485;-57
2022/03/29 12:44:00;;;;;;;19.67;10.63;;;;;;;;;;5019708;28;20026;-58
2022/03/29 12:46:26;;;;;;;18.15;10.93;;;;;;;;;;5022735;28;20025;-58
2022/03/29 12:48:52;;;;;;;16.60;11.13;;;;;;;;;;5029009;28;20477;-59
2022/03/29 12:51:27;;;;;;;19.65;10.73;;;;;;;;;;5018719;28;20849;-52
2022/03/29 12:54:03;;;;;;;17.20;10.23;;;;;;;;;;5012933;28;20026;-58
2022/03/29 12:56:43;;;;;;;18.83;11.20;;;;;;;;;;5013268;28;20041;-59
2022/03/29 12:59:54;;;;;;;19.45;12.57;;;;;;;;;;5012058;28;20071;-58
2022/03/29 13:02:22;;;;;;;19.17;11.18;;;;;;;;;;5003867;28;20034;-58
2022/03/29 13:05:00;;;;;;;24.50;16.08;;;;;;;;;;5013048;28;20030;-57
2022/03/29 13:07:50;;;;;;;20.20;12.23;;;;;;;;;;5011814;28;20075;-58
2022/03/29 13:10:24;;;;;;;21.63;12.52;;;;;;;;;;5011991;28;20068;-57
2022/03/29 13:13:05;;;;;;;25.50;12.75;;;;;;;;;;5012326;28;20433;-53
2022/03/29 13:15:46;;;;;;;23.08;11.55;;;;;;;;;;5012825;28;20034;-51
2022/03/29 13:18:34;;;;;;;25.20;11.50;;;;;;;;;;5011209;28;20087;-55
2022/03/29 13:21:11;;;;;;;20.80;10.80;;;;;;;;;;5012180;28;20041;-59
2022/03/29 13:23:37;;;;;;;15.38;10.50;;;;;;;;;;5012695;28;20044;-57
2022/03/29 13:26:05;;;;;;;16.50;10.20;;;;;;;;;;5012676;28;20433;-58
2022/03/29 13:28:31;;;;;;;20.55;9.90;;;;;;;;;;5012730;28;20105;-57
2022/03/29 13:30:57;;;;;;;23.15;11.65;;;;;;;;;;5012304;28;20112;-58
2022/03/29 13:33:22;;;;;;;23.98;11.50;;;;;;;;;;5010954;28;20600;-57
2022/03/29 13:35:51;;;;;;;20.98;11.65;;;;;;;;;;5012514;28;20031;-58
2022/03/29 13:38:20;;;;;;;25.30;11.45;;;;;;;;;;5012549;28;20104;-57
2022/03/29 13:40:47;;;;;;;17.13;10.48;;;;;;;;;;5012182;28;20030;-57
2022/03/29 13:43:14;;;;;;;21.55;10.32;;;;;;;;;;5012066;28;20030;-51
2022/03/29 13:45:41;;;;;;;18.08;10.02;;;;;;;;;;5012011;28;20033;-57
2022/03/29 13:48:07;;;;;;;19.00;10.32;;;;;;;;;;5012252;28;20026;-58
2022/03/29 13:50:34;;;;;;;22.73;10.07;;;;;;;;;;5017632;28;20044;-58
2022/03/29 13:53:00;;;;;;;19.33;10.38;;;;;;;;;;5032048;28;20034;-58
2022/03/29 13:55:26;;;;;;;16.55;10.65;;;;;;;;;;5031721;28;20033;-57
2022/03/29 13:57:52;;;;;;;19.73;10.18;;;;;;;;;;5031603;28;20026;-58
2022/03/29 14:00:19;;;;;;;23.95;9.43;;;;;;;;;;5031570;28;20029;-56
2022/03/29 14:02:45;;;;;;;22.52;11.25;;;;;;;;;;5031703;28;20029;-57
2022/03/29 14:05:11;;;;;;;45.42;13.30;;;;;;;;;;5031463;28;20082;-56
2022/03/29 14:07:36;;;;;;;22.52;11.48;;;;;;;;;;5031558;28;20041;-57
2022/03/29 14:10:02;;;;;;;18.52;11.05;;;;;;;;;;5031111;28;20055;-57
2022/03/29 14:12:28;;;;;;;19.00;10.50;;;;;;;;;;5031458;28;20029;-58
2022/03/29 14:14:54;;;;;;;15.85;10.55;;;;;;;;;;5031286;28;20044;-59
2022/03/29 14:17:20;;;;;;;17.27;10.55;;;;;;;;;;5031469;28;20029;-59
2022/03/29 14:19:50;;;;;;;25.55;10.18;;;;;;;;;;5031113;28;20513;-60
2022/03/29 14:22:16;;;;;;;20.15;10.57;;;;;;;;;;5031091;28;20622;-59
2022/03/29 14:24:42;;;;;;;17.38;9.57;;;;;;;;;;5031091;28;20523;-59
2022/03/29 14:27:08;;;;;;;18.63;9.55;;;;;;;;;;5031521;28;20037;-55
2022/03/29 14:29:34;;;;;;;17.58;10.07;;;;;;;;;;5030849;28;20037;-58
2022/03/29 14:32:02;;;;;;;29.65;10.40;;;;;;;;;;5030865;28;20029;-58
2022/03/29 14:34:28;;;;;;;17.77;9.75;;;;;;;;;;5030945;28;20039;-59
2022/03/29 14:36:54;;;;;;;13.25;9.25;;;;;;;;;;5030894;28;20516;-59
2022/03/29 14:39:20;;;;;;;16.27;9.48;;;;;;;;;;5030855;28;20037;-57
2022/03/29 14:41:45;;;;;;;18.63;9.43;;;;;;;;;;5031079;28;20026;-61